createdAt,value
2022-12-16T00:01:36.738Z,88.86
2022-12-16T00:04:04.744Z,87.78
2022-12-16T00:06:34.788Z,88.30
2022-12-16T00:09:04.029Z,87.75
2022-12-16T00:11:32.702Z,88.01
2022-12-16T00:14:00.547Z,87.37
2022-12-16T00:16:28.656Z,87.84
2022-12-16T00:18:56.444Z,88.20
2022-12-16T00:21:28.638Z,89.18
2022-12-16T00:23:56.960Z,88.46
2022-12-16T00:26:26.169Z,88.35
2022-12-16T00:28:53.927Z,88.53
2022-12-16T00:31:22.693Z,89.71
2022-12-16T00:33:50.500Z,88.57
2022-12-16T00:36:18.312Z,89.09
2022-12-16T00:38:46.070Z,88.99
2022-12-16T00:41:13.823Z,87.91
2022-12-16T00:43:42.924Z,88.50
2022-12-16T00:46:10.688Z,88.03
2022-12-16T00:48:38.458Z,88.91
2022-12-16T00:51:07.085Z,89.00
2022-12-16T00:53:35.910Z,89.07
2022-12-16T00:56:05.090Z,89.25
2022-12-16T00:58:32.952Z,88.86
2022-12-16T01:01:02.421Z,88.63
2022-12-16T01:03:30.348Z,88.44
2022-12-16T01:05:58.407Z,89.58
2022-12-16T01:08:26.316Z,88.36
2022-12-16T01:10:56.673Z,88.45
2022-12-16T01:13:25.625Z,87.71
2022-12-16T01:15:53.396Z,88.36
2022-12-16T01:18:22.804Z,87.91
2022-12-16T01:20:50.505Z,87.79
2022-12-16T01:23:18.307Z,87.40
2022-12-16T01:25:46.054Z,88.19
2022-12-16T01:28:13.833Z,88.06
2022-12-16T01:30:41.620Z,87.22
2022-12-16T01:33:10.756Z,89.05
2022-12-16T01:35:56.280Z,88.86
2022-12-16T01:38:24.620Z,87.23
2022-12-16T01:40:52.615Z,86.65
2022-12-16T01:43:26.720Z,86.47
2022-12-16T01:45:59.039Z,87.93
2022-12-16T01:48:38.614Z,87.64
2022-12-16T01:51:12.980Z,87.37
2022-12-16T01:56:32.886Z,87.32
2022-12-16T01:59:01.603Z,87.85
2022-12-16T02:01:30.114Z,87.88
2022-12-16T02:04:01.725Z,87.63
2022-12-16T02:06:31.204Z,87.64
2022-12-16T02:09:01.975Z,86.37
2022-12-16T02:15:09.351Z,87.46
2022-12-16T02:17:46.341Z,86.42
2022-12-16T02:20:47.143Z,86.44
2022-12-16T02:23:35.985Z,87.13
2022-12-16T02:26:29.287Z,85.14
2022-12-16T02:29:19.390Z,86.45
2022-12-16T02:31:55.264Z,86.22
2022-12-16T02:34:31.597Z,86.30
2022-12-16T02:37:12.121Z,87.12
2022-12-16T02:39:45.773Z,85.96
2022-12-16T02:42:18.834Z,85.80
2022-12-16T02:47:41.259Z,84.62
2022-12-16T02:50:19.664Z,84.66
2022-12-16T02:52:47.736Z,85.95
2022-12-16T02:55:16.096Z,86.50
2022-12-16T02:58:07.680Z,85.86
2022-12-16T03:03:38.112Z,86.27
2022-12-16T03:06:07.093Z,84.98
2022-12-16T03:08:38.845Z,86.49
2022-12-16T03:11:08.192Z,85.82
2022-12-16T03:13:40.507Z,85.46
2022-12-16T03:16:12.047Z,85.46
2022-12-16T03:21:35.445Z,84.37
2022-12-16T03:24:07.021Z,84.66
2022-12-16T03:26:40.162Z,83.84
2022-12-16T03:29:12.936Z,83.80
2022-12-16T03:31:45.448Z,84.00
2022-12-16T03:37:10.534Z,84.49
2022-12-16T03:39:43.717Z,85.18
2022-12-16T03:42:14.987Z,83.83
2022-12-16T03:44:44.407Z,82.55
2022-12-16T03:47:14.956Z,83.99
2022-12-16T03:49:47.506Z,82.83
2022-12-16T03:55:00.402Z,84.88
2022-12-16T03:57:28.180Z,84.30
2022-12-16T03:59:55.857Z,84.59
2022-12-16T04:02:23.768Z,84.56
2022-12-16T04:04:52.965Z,83.97
2022-12-16T04:10:10.319Z,82.79
2022-12-16T04:12:55.331Z,82.88
2022-12-16T04:15:40.667Z,82.66
2022-12-16T04:18:33.623Z,83.28
2022-12-16T04:21:21.277Z,82.30
2022-12-16T04:24:10.249Z,83.77
2022-12-16T04:26:59.529Z,83.40
2022-12-16T04:29:27.274Z,84.40
2022-12-16T04:31:55.172Z,83.89
2022-12-16T04:34:29.338Z,83.45
2022-12-16T04:37:17.841Z,84.19
2022-12-16T04:40:03.399Z,82.73
2022-12-16T04:45:51.968Z,82.21
2022-12-16T04:48:37.109Z,81.75
2022-12-16T04:51:22.390Z,81.43
2022-12-16T04:54:14.228Z,82.35
2022-12-16T04:56:59.737Z,80.73
2022-12-16T05:00:00.524Z,80.98
2022-12-16T05:02:45.798Z,81.54
2022-12-16T05:05:30.945Z,81.09
2022-12-16T05:08:30.876Z,80.65
2022-12-16T05:11:17.513Z,80.81
2022-12-16T05:14:02.829Z,80.50
2022-12-16T05:16:48.285Z,79.23
2022-12-16T05:19:33.680Z,80.13
2022-12-16T05:22:18.820Z,80.70
2022-12-16T05:25:04.119Z,80.80
2022-12-16T05:27:50.858Z,81.34
2022-12-16T05:33:38.976Z,81.15
2022-12-16T05:36:24.409Z,80.61
2022-12-16T05:39:10.492Z,81.42
2022-12-16T05:41:55.828Z,80.33
2022-12-16T05:44:42.889Z,80.34
2022-12-16T05:47:29.008Z,81.34
2022-12-16T05:50:14.202Z,80.08
2022-12-16T05:53:00.081Z,80.13
2022-12-16T05:55:45.356Z,80.24
2022-12-16T05:58:30.890Z,80.03
2022-12-16T06:01:17.428Z,80.33
2022-12-16T06:04:02.879Z,80.60
2022-12-16T06:06:48.166Z,80.35
2022-12-16T06:09:33.261Z,80.73
2022-12-16T06:12:18.403Z,80.13
2022-12-16T06:15:03.850Z,80.49
2022-12-16T06:17:50.295Z,81.23
2022-12-16T06:20:35.445Z,81.18
2022-12-16T06:23:24.108Z,80.79
2022-12-16T06:26:10.718Z,82.52
2022-12-16T06:28:55.981Z,81.52
2022-12-16T06:31:41.427Z,81.97
2022-12-16T06:34:28.001Z,82.89
2022-12-16T06:37:13.295Z,82.01
2022-12-16T06:39:58.405Z,81.84
2022-12-16T06:42:43.739Z,82.50
2022-12-16T06:45:34.315Z,82.01
2022-12-16T06:48:19.920Z,82.29
2022-12-16T06:51:06.702Z,81.28
2022-12-16T06:53:51.707Z,80.87
2022-12-16T06:56:37.030Z,80.91
2022-12-16T06:59:22.497Z,81.95
2022-12-16T07:02:07.539Z,81.40
2022-12-16T07:04:52.592Z,81.01
2022-12-16T07:07:39.213Z,80.34
2022-12-16T07:10:25.281Z,81.07
2022-12-16T07:13:10.634Z,81.65
2022-12-16T07:15:56.094Z,81.23
2022-12-16T07:18:41.141Z,82.25
2022-12-16T07:21:26.232Z,81.23
2022-12-16T07:24:12.797Z,82.07
2022-12-16T07:26:58.138Z,81.57
2022-12-16T07:29:43.286Z,80.88
2022-12-16T07:32:28.701Z,80.65
2022-12-16T07:35:13.772Z,81.04
2022-12-16T07:37:59.371Z,81.73
2022-12-16T07:40:46.208Z,81.77
2022-12-16T07:43:31.694Z,81.34
2022-12-16T07:46:17.227Z,81.22
2022-12-16T07:49:07.740Z,80.30
2022-12-16T07:51:53.085Z,80.52
2022-12-16T07:54:38.380Z,81.25
2022-12-16T07:57:25.173Z,82.29
2022-12-16T08:00:10.598Z,79.69
2022-12-16T08:02:58.945Z,79.95
2022-12-16T08:05:44.121Z,80.02
2022-12-16T08:08:29.483Z,81.64
2022-12-16T08:11:14.790Z,80.95
2022-12-16T08:14:01.340Z,81.51
2022-12-16T08:16:46.753Z,80.93
2022-12-16T08:19:31.949Z,81.10
2022-12-16T08:22:28.526Z,80.79
2022-12-16T08:25:13.774Z,80.93
2022-12-16T08:27:59.158Z,81.26
2022-12-16T08:30:45.838Z,82.52
2022-12-16T08:33:31.093Z,81.38
2022-12-16T08:36:31.602Z,82.31
2022-12-16T08:39:22.188Z,80.97
2022-12-16T08:42:07.137Z,81.26
2022-12-16T08:44:52.469Z,82.12
2022-12-16T08:47:39.528Z,82.45
2022-12-16T08:50:25.779Z,81.89
2022-12-16T08:53:10.984Z,82.41
2022-12-16T08:55:56.406Z,82.48
2022-12-16T08:58:53.315Z,83.29
2022-12-16T09:01:41.161Z,83.00
2022-12-16T09:04:27.949Z,83.08
2022-12-16T09:07:13.129Z,83.46
2022-12-16T09:09:58.215Z,84.00
2022-12-16T09:12:43.642Z,84.07
2022-12-16T09:15:29.047Z,84.54
2022-12-16T09:18:11.542Z,84.44
2022-12-16T09:20:58.277Z,84.44
2022-12-16T09:23:43.669Z,85.41
2022-12-16T09:26:29.216Z,85.58
2022-12-16T09:29:14.329Z,84.72
2022-12-16T09:31:59.667Z,84.21
2022-12-16T09:34:44.748Z,85.67
2022-12-16T09:37:31.603Z,85.40
2022-12-16T09:40:16.781Z,85.88
2022-12-16T09:43:08.733Z,86.41
2022-12-16T09:46:02.832Z,85.65
2022-12-16T09:48:54.088Z,86.61
2022-12-16T09:51:39.973Z,86.58
2022-12-16T09:54:30.538Z,86.59
2022-12-16T09:57:18.356Z,87.38
2022-12-16T10:00:08.446Z,87.95
2022-12-16T10:02:54.169Z,89.16
2022-12-16T10:05:54.896Z,88.28
2022-12-16T10:08:47.867Z,88.56
2022-12-16T10:11:40.989Z,89.76
2022-12-16T10:14:31.642Z,88.65
2022-12-16T10:17:27.569Z,88.73
2022-12-16T10:20:19.764Z,88.40
2022-12-16T10:23:15.816Z,88.09
2022-12-16T10:26:08.417Z,89.64
2022-12-16T10:29:03.663Z,89.26
2022-12-16T10:31:49.708Z,89.22
2022-12-16T10:34:38.794Z,90.96
2022-12-16T10:37:23.960Z,90.19
2022-12-16T10:40:16.447Z,87.71
2022-12-16T10:43:08.130Z,87.65
2022-12-16T10:46:00.399Z,87.19
2022-12-16T10:48:54.974Z,89.62
2022-12-16T10:51:39.809Z,88.19
2022-12-16T10:54:46.812Z,88.13
2022-12-16T10:57:37.603Z,87.50
2022-12-16T11:00:32.104Z,88.18
2022-12-16T11:03:36.163Z,87.82
2022-12-16T11:06:22.101Z,87.88
2022-12-16T11:09:07.523Z,88.85
2022-12-16T11:11:52.825Z,89.62
2022-12-16T11:14:59.502Z,89.73
2022-12-16T11:17:45.490Z,89.46
2022-12-16T11:20:35.273Z,90.09
2022-12-16T11:23:38.385Z,91.12
2022-12-16T11:26:27.747Z,90.42
2022-12-16T11:29:30.770Z,91.34
2022-12-16T11:32:20.392Z,90.98
2022-12-16T11:35:11.560Z,90.39
2022-12-16T11:38:00.445Z,90.33
2022-12-16T11:40:47.943Z,90.92
2022-12-16T11:43:36.083Z,91.36
2022-12-16T11:46:28.054Z,90.32
2022-12-16T11:49:23.424Z,89.09
2022-12-16T11:52:35.867Z,87.97
2022-12-16T11:55:56.058Z,88.19
2022-12-16T11:58:42.445Z,88.31
2022-12-16T12:01:34.227Z,88.42
2022-12-16T12:04:19.497Z,88.08
2022-12-16T12:07:22.285Z,87.70
2022-12-16T12:10:16.495Z,87.71
2022-12-16T12:13:08.458Z,88.44
2022-12-16T12:16:02.213Z,88.97
2022-12-16T12:19:01.512Z,87.32
2022-12-16T12:21:53.987Z,86.91
2022-12-16T12:24:56.279Z,87.23
2022-12-16T12:27:49.649Z,87.74
2022-12-16T12:30:44.247Z,91.02
2022-12-16T12:33:45.191Z,90.67
2022-12-16T12:36:38.268Z,90.49
2022-12-16T12:39:36.516Z,91.98
2022-12-16T12:42:35.193Z,92.49
2022-12-16T12:45:42.023Z,92.78
2022-12-16T12:48:33.671Z,92.59
2022-12-16T12:51:26.219Z,93.17
2022-12-16T12:54:21.926Z,93.59
2022-12-16T12:57:10.351Z,93.66
2022-12-16T13:00:08.186Z,93.97
2022-12-16T13:03:06.974Z,94.06
2022-12-16T13:05:55.670Z,95.07
2022-12-16T13:08:57.918Z,94.40
2022-12-16T13:11:43.429Z,94.76
2022-12-16T13:15:02.720Z,94.67
2022-12-16T13:17:47.866Z,95.56
2022-12-16T13:20:56.713Z,96.11
2022-12-16T13:23:51.514Z,96.25
2022-12-16T13:26:38.799Z,96.46
2022-12-16T13:29:36.112Z,97.91
2022-12-16T13:32:41.750Z,98.49
2022-12-16T13:35:45.620Z,99.75
2022-12-16T13:38:40.718Z,100.00
2022-12-16T13:42:01.045Z,100.00
2022-12-16T13:45:14.254Z,100.00
2022-12-16T13:48:18.646Z,100.00
2022-12-16T13:51:18.928Z,100.00
2022-12-16T13:54:10.311Z,100.00
2022-12-16T13:57:03.888Z,100.00
2022-12-16T13:59:51.168Z,100.00
2022-12-16T14:02:44.875Z,100.00
2022-12-16T14:05:38.356Z,100.00
2022-12-16T14:08:29.875Z,100.00
2022-12-16T14:11:19.884Z,100.00
2022-12-16T14:14:15.681Z,100.00
2022-12-16T14:17:09.447Z,100.00
2022-12-16T14:20:10.481Z,100.00
2022-12-16T14:23:32.474Z,100.00
2022-12-16T14:26:22.315Z,100.00
2022-12-16T14:29:07.196Z,100.00
2022-12-16T14:31:56.193Z,100.00
2022-12-16T14:34:45.851Z,100.00
2022-12-16T14:37:32.845Z,100.00
2022-12-16T14:40:18.564Z,100.00
2022-12-16T14:43:12.987Z,100.00
2022-12-16T14:46:06.227Z,100.00
2022-12-16T14:48:55.289Z,100.00
2022-12-16T14:51:46.100Z,100.00
2022-12-16T14:54:45.866Z,100.00
2022-12-16T14:57:36.299Z,100.00
2022-12-16T15:00:32.241Z,100.00
2022-12-16T15:03:24.120Z,100.00
2022-12-16T15:06:11.189Z,100.00
2022-12-16T15:09:10.276Z,100.00
2022-12-16T15:11:57.462Z,100.00
2022-12-16T15:14:45.538Z,100.00
2022-12-16T15:17:39.431Z,100.00
2022-12-16T15:20:35.727Z,100.00
2022-12-16T15:23:21.151Z,100.00
2022-12-16T15:26:13.739Z,100.00
2022-12-16T15:29:01.509Z,100.00
2022-12-16T15:31:51.635Z,100.00
2022-12-16T15:34:47.884Z,100.00
2022-12-16T15:37:39.850Z,100.00
2022-12-16T15:40:38.865Z,100.00
2022-12-16T15:43:24.346Z,100.00
2022-12-16T15:46:10.717Z,100.00
2022-12-16T15:48:56.213Z,100.00
2022-12-16T15:51:48.645Z,100.00
2022-12-16T15:54:36.573Z,100.00
2022-12-16T15:57:22.435Z,100.00
2022-12-16T16:00:14.934Z,100.00
2022-12-16T16:03:06.077Z,100.00
2022-12-16T16:05:54.112Z,100.00
2022-12-16T16:08:40.764Z,100.00
2022-12-16T16:11:26.805Z,100.00
2022-12-16T16:14:14.318Z,100.00
2022-12-16T16:16:59.763Z,100.00
2022-12-16T16:19:46.003Z,100.00
2022-12-16T16:22:33.136Z,100.00
2022-12-16T16:25:20.027Z,100.00
2022-12-16T16:28:05.512Z,100.00
2022-12-16T16:30:50.755Z,100.00
2022-12-16T16:33:36.115Z,100.00
2022-12-16T16:36:32.053Z,100.00
2022-12-16T16:39:17.443Z,100.00
2022-12-16T16:42:04.300Z,100.00
2022-12-16T16:44:49.698Z,100.00
2022-12-16T16:47:36.098Z,100.00
2022-12-16T16:50:21.642Z,100.00
2022-12-16T16:53:07.044Z,100.00
2022-12-16T16:55:52.161Z,100.00
2022-12-16T16:58:44.372Z,100.00
2022-12-16T17:01:31.722Z,100.00
2022-12-16T17:04:17.082Z,100.00
2022-12-16T17:07:01.566Z,100.00
2022-12-16T17:09:46.689Z,100.00
2022-12-16T17:12:37.476Z,100.00
2022-12-16T17:15:45.739Z,100.00
2022-12-16T17:18:30.849Z,100.00
2022-12-16T17:21:16.085Z,100.00
2022-12-16T17:24:01.130Z,100.00
2022-12-16T17:26:46.591Z,100.00
2022-12-16T17:29:40.891Z,100.00
2022-12-16T17:32:36.139Z,100.00
2022-12-16T17:35:21.583Z,100.00
2022-12-16T17:38:07.129Z,100.00
2022-12-16T17:40:52.475Z,100.00
2022-12-16T17:43:40.856Z,100.00
2022-12-16T17:46:30.036Z,100.00
2022-12-16T17:49:17.480Z,100.00
2022-12-16T17:52:03.296Z,100.00
2022-12-16T17:54:48.475Z,100.00
2022-12-16T17:57:33.966Z,100.00
2022-12-16T18:00:19.421Z,100.00
2022-12-16T18:03:05.035Z,100.00
2022-12-16T18:05:51.895Z,100.00
2022-12-16T18:08:37.357Z,100.00
2022-12-16T18:11:22.595Z,100.00
2022-12-16T18:14:07.659Z,100.00
2022-12-16T18:16:52.737Z,100.00
2022-12-16T18:19:38.116Z,100.00
2022-12-16T18:22:24.770Z,100.00
2022-12-16T18:25:10.192Z,100.00
2022-12-16T18:27:55.809Z,100.00
2022-12-16T18:30:41.144Z,100.00
2022-12-16T18:33:26.995Z,100.00
2022-12-16T18:36:12.535Z,100.00
2022-12-16T18:38:59.416Z,100.00
2022-12-16T18:41:44.771Z,100.00
2022-12-16T18:44:32.265Z,100.00
2022-12-16T18:47:18.218Z,100.00
2022-12-16T18:50:03.694Z,100.00
2022-12-16T18:52:48.881Z,100.00
2022-12-16T18:55:35.489Z,100.00
2022-12-16T18:58:49.742Z,100.00
2022-12-16T19:01:28.164Z,100.00
2022-12-16T19:04:14.465Z,100.00
2022-12-16T19:07:00.044Z,100.00
2022-12-16T19:09:45.536Z,100.00
2022-12-16T19:12:32.000Z,100.00
2022-12-16T19:15:17.399Z,100.00
2022-12-16T19:18:02.904Z,100.00
2022-12-16T19:20:47.833Z,100.00
2022-12-16T19:23:33.920Z,100.00
2022-12-16T19:26:25.750Z,100.00
2022-12-16T19:29:12.563Z,100.00
2022-12-16T19:31:57.869Z,100.00
2022-12-16T19:34:51.511Z,100.00
2022-12-16T19:37:37.050Z,100.00
2022-12-16T19:40:22.449Z,100.00
2022-12-16T19:43:07.965Z,100.00
2022-12-16T19:48:59.878Z,100.00
2022-12-16T19:51:45.515Z,100.00
2022-12-16T19:54:31.196Z,100.00
2022-12-16T19:57:16.740Z,100.00
2022-12-16T20:00:01.850Z,100.00
2022-12-16T20:02:58.235Z,100.00
2022-12-16T20:05:43.456Z,100.00
2022-12-16T20:08:28.721Z,100.00
2022-12-16T20:11:13.998Z,100.00
2022-12-16T20:13:59.148Z,100.00
2022-12-16T20:16:45.914Z,100.00
2022-12-16T20:19:32.234Z,100.00
2022-12-16T20:22:17.558Z,100.00
2022-12-16T20:25:02.751Z,100.00
2022-12-16T20:27:47.867Z,100.00
2022-12-16T20:30:33.355Z,100.00
2022-12-16T20:33:18.824Z,100.00
2022-12-16T20:36:15.303Z,100.00
2022-12-16T20:38:56.965Z,100.00
2022-12-16T20:41:42.496Z,100.00
2022-12-16T20:44:30.284Z,100.00
2022-12-16T20:47:15.664Z,100.00
2022-12-16T20:50:01.107Z,100.00
2022-12-16T20:52:47.524Z,100.00
2022-12-16T20:55:33.299Z,100.00
2022-12-16T20:58:18.605Z,100.00
2022-12-16T21:01:03.781Z,100.00
2022-12-16T21:03:49.027Z,100.00
2022-12-16T21:06:34.369Z,100.00
2022-12-16T21:09:20.966Z,100.00
2022-12-16T21:12:06.022Z,100.00
2022-12-16T21:14:51.655Z,100.00
2022-12-16T21:17:37.054Z,100.00
2022-12-16T21:20:22.908Z,100.00
2022-12-16T21:23:15.178Z,100.00
2022-12-16T21:26:01.914Z,100.00
2022-12-16T21:28:46.989Z,100.00
2022-12-16T21:31:32.448Z,100.00
2022-12-16T21:34:17.567Z,100.00
2022-12-16T21:37:02.843Z,100.00
2022-12-16T21:39:48.073Z,100.00
2022-12-16T21:42:36.732Z,100.00
2022-12-16T21:45:23.750Z,100.00
2022-12-16T21:48:11.572Z,100.00
2022-12-16T21:50:56.998Z,100.00
2022-12-16T21:53:42.781Z,100.00
2022-12-16T21:56:28.289Z,100.00
2022-12-16T21:59:14.634Z,100.00
2022-12-16T22:01:59.763Z,100.00
2022-12-16T22:04:45.013Z,100.00
2022-12-16T22:07:30.446Z,100.00
2022-12-16T22:10:15.878Z,100.00
2022-12-16T22:13:01.175Z,100.00
2022-12-16T22:15:47.682Z,100.00
2022-12-16T22:18:35.041Z,100.00
2022-12-16T22:21:23.187Z,100.00
2022-12-16T22:24:09.081Z,100.00
2022-12-16T22:26:54.864Z,100.00
2022-12-16T22:29:41.673Z,100.00
2022-12-16T22:32:28.439Z,100.00
2022-12-16T22:35:13.905Z,100.00
2022-12-16T22:36:20.247Z,100.00
2022-12-16T22:37:59.069Z,100.00
2022-12-16T22:40:40.701Z,100.00
2022-12-16T22:43:25.816Z,100.00
2022-12-16T22:46:17.096Z,100.00
2022-12-16T22:49:04.461Z,100.00
2022-12-16T22:51:49.630Z,100.00
2022-12-16T22:54:43.051Z,100.00
2022-12-16T22:57:28.153Z,100.00
2022-12-16T23:00:13.268Z,100.00
2022-12-16T23:02:58.412Z,100.00
2022-12-16T23:05:44.890Z,100.00
2022-12-16T23:08:30.090Z,100.00
2022-12-16T23:11:16.806Z,100.00
2022-12-16T23:14:02.277Z,100.00
2022-12-16T23:16:47.821Z,100.00
2022-12-16T23:19:33.372Z,100.00
2022-12-16T23:22:19.758Z,100.00
2022-12-16T23:25:05.126Z,100.00
2022-12-16T23:27:50.350Z,100.00
2022-12-16T23:30:35.670Z,100.00
2022-12-16T23:33:21.666Z,100.00
2022-12-16T23:36:06.986Z,100.00
2022-12-16T23:38:53.467Z,100.00
2022-12-16T23:41:38.714Z,100.00
2022-12-16T23:44:29.369Z,100.00
2022-12-16T23:47:14.838Z,100.00
2022-12-16T23:50:00.165Z,100.00
2022-12-16T23:52:45.500Z,100.00
2022-12-16T23:55:32.081Z,100.00
2022-12-16T23:58:17.901Z,100.00
